Time;durP1;ratioP1;P1;durP2;ratioP2;P2;SDS_P1;SDS_P2;PMS_P1;PMS_P2;Temp;Humidity;BMP_temperature;BMP_pressure;BME280_temperature;BME280_humidity;BME280_pressure;Samples;Min_cycle;Max_cycle;Signal;HPM_P1;HPM_P2
2021/03/03 00:08:33;;;;;;;;;;;;;;;;;;21114533;28;1366;-43
2021/03/03 00:18:50;;;;;;;;;;;;;;;;;;21067032;28;2484;-42
2021/03/03 00:28:57;;;;;;;;;;;;;;;;;;21100324;28;1502;-41
2021/03/03 00:39:12;;;;;;;;;;;;;;;;;;21025910;28;1964;-41
2021/03/03 00:49:14;;;;;;;;;;;;;;;;;;20978651;28;1269;-41
2021/03/03 00:59:15;;;;;;;;;;;;;;;;;;20978014;28;1897;-41
2021/03/03 01:09:17;;;;;;;;;;;;;;;;;;21017187;28;1546;-41
2021/03/03 01:19:22;;;;;;;;;;;;;;;;;;21057298;28;2005;-40
2021/03/03 01:29:23;;;;;;;;;;;;;;;;;;21058524;28;1125;-40
2021/03/03 01:39:28;;;;;;;;;;;;;;;;;;21036254;28;1977;-40
2021/03/03 01:49:29;;;;;;;;;;;;;;;;;;20968443;28;1104;-41
2021/03/03 01:59:31;;;;;;;;;;;;;;;;;;20972909;28;1909;-40
2021/03/03 02:09:40;;;;;;;;;;;;;;;;;;20993778;28;1311;-40
2021/03/03 02:19:42;;;;;;;;;;;;;;;;;;21018417;28;1902;-41
2021/03/03 02:29:43;;;;;;;;;;;;;;;;;;21036719;28;1162;-43
2021/03/03 02:39:45;;;;;;;;;;;;;;;;;;21014542;28;1902;-41
2021/03/03 02:50:01;;;;;;;;;;;;;;;;;;20934025;28;987;-40
2021/03/03 03:00:21;;;;;;;;;;;;;;;;;;20948621;28;1910;-40
2021/03/03 03:10:23;;;;;;;;;;;;;;;;;;21003630;28;1308;-41
2021/03/03 03:20:25;;;;;;;;;;;;;;;;;;21047706;28;1977;-41
2021/03/03 03:30:27;;;;;;;;;;;;;;;;;;21049059;28;1079;-40
2021/03/03 03:40:31;;;;;;;;;;;;;;;;;;21022067;28;1918;-42
2021/03/03 03:50:47;;;;;;;;;;;;;;;;;;20962710;28;1099;-41
2021/03/03 04:00:48;;;;;;;;;;;;;;;;;;20965465;28;1898;-40
2021/03/03 04:11:07;;;;;;;;;;;;;;;;;;21010182;28;1309;-43
2021/03/03 04:21:22;;;;;;;;;;;;;;;;;;21063683;28;1905;-41
2021/03/03 04:31:38;;;;;;;;;;;;;;;;;;21035584;28;1284;-41
2021/03/03 04:41:40;;;;;;;;;;;;;;;;;;21007068;28;1913;-40
2021/03/03 04:51:58;;;;;;;;;;;;;;;;;;20956229;28;1025;-40
2021/03/03 05:02:00;;;;;;;;;;;;;;;;;;20974715;28;1898;-42
2021/03/03 05:12:04;;;;;;;;;;;;;;;;;;21040649;28;1296;-42
2021/03/03 05:22:20;;;;;;;;;;;;;;;;;;20993299;28;1922;-41
2021/03/03 05:32:23;;;;;;;;;;;;;;;;;;21038204;28;1189;-40
2021/03/03 05:42:39;;;;;;;;;;;;;;;;;;20993419;28;1910;-44
2021/03/03 05:52:55;;;;;;;;;;;;;;;;;;20966297;28;1143;-47
2021/03/03 06:02:57;;;;;;;;;;;;;;;;;;20969910;28;1985;-41
2021/03/03 06:13:13;;;;;;;;;;;;;;;;;;20871552;28;1310;-44
2021/03/03 06:23:29;;;;;;;;;;;;;;;;;;20855747;28;1914;-41
2021/03/03 06:33:44;;;;;;;;;;;;;;;;;;20885655;28;1023;-41
2021/03/03 06:43:56;;;;;;;;;;;;;;;;;;20903860;28;1990;-41
2021/03/03 06:54:01;;;;;;;;;;;;;;;;;;20968597;28;1082;-41
2021/03/03 07:04:02;;;;;;;;;;;;;;;;;;20966486;28;1980;-40
2021/03/03 07:14:18;;;;;;;;;;;;;;;;;;20862796;28;1349;-39
2021/03/03 07:24:35;;;;;;;;;;;;;;;;;;20476325;28;10000341;-39
2021/03/03 07:34:36;;;;;;;;;;;;;;;;;;20830236;28;1116;-40
2021/03/03 07:44:40;;;;;;;;;;;;;;;;;;20920151;28;1992;-39
2021/03/03 07:54:42;;;;;;;;;;;;;;;;;;20909669;28;1386;-41
2021/03/03 08:05:01;;;;;;;;;;;;;;;;;;20888444;28;1898;-39
2021/03/03 08:15:22;;;;;;;;;;;;;;;;;;21057338;28;1314;-40
2021/03/03 08:25:40;;;;;;;;;;;;;;;;;;21057274;28;1910;-40
2021/03/03 08:35:41;;;;;;;;;;;;;;;;;;21054704;28;1187;-40
2021/03/03 08:45:56;;;;;;;;;;;;;;;;;;20989419;28;1906;-40
2021/03/03 08:55:58;;;;;;;;;;;;;;;;;;20969907;28;1134;-39
2021/03/03 09:06:00;;;;;;;;;;;;;;;;;;20949392;28;1906;-40
2021/03/03 09:16:06;;;;;;;;;;;;;;;;;;21052183;28;1074;-40
2021/03/03 09:26:21;;;;;;;;;;;;;;;;;;21053905;28;1967;-39
2021/03/03 09:36:23;;;;;;;;;;;;;;;;;;20987200;28;1365;-39
2021/03/03 09:46:24;;;;;;;;;;;;;;;;;;20967726;28;1930;-39
2021/03/03 09:56:26;;;;;;;;;;;;;;;;;;20967998;28;1172;-39
2021/03/03 10:06:30;;;;;;;;;;;;;;;;;;20984597;28;1914;-39
2021/03/03 10:17:02;;;;;;;;;;;;;;;;;;21047697;28;1330;-39
2021/03/03 10:27:03;;;;;;;;;;;;;;;;;;21049231;28;1913;-39
2021/03/03 10:37:25;;;;;;;;;;;;;;;;;;21047888;28;1040;-39
2021/03/03 10:47:40;;;;;;;;;;;;;;;;;;20969040;28;1922;-40
2021/03/03 10:58:01;;;;;;;;;;;;;;;;;;20944607;28;1133;-40
2021/03/03 11:08:02;;;;;;;;;;;;;;;;;;20995307;28;1987;-39
2021/03/03 11:18:18;;;;;;;;;;;;;;;;;;21046559;28;1264;-39
2021/03/03 11:28:19;;;;;;;;;;;;;;;;;;21042737;28;1913;-39
2021/03/03 11:38:35;;;;;;;;;;;;;;;;;;21024752;28;1253;-39
2021/03/03 11:48:51;;;;;;;;;;;;;;;;;;20960407;28;1375;-39
2021/03/03 11:59:06;;;;;;;;;;;;;;;;;;20959438;28;1973;-39
2021/03/03 12:09:22;;;;;;;;;;;;;;;;;;20998775;28;1403;-39
2021/03/03 12:19:38;;;;;;;;;;;;;;;;;;21021887;28;1961;-39
2021/03/03 12:29:39;;;;;;;;;;;;;;;;;;20964299;28;1560;-39
2021/03/03 12:39:41;;;;;;;;;;;;;;;;;;20886645;28;1914;-39
2021/03/03 12:49:43;;;;;;;;;;;;;;;;;;20977008;28;1050;-39
2021/03/03 12:59:58;;;;;;;;;;;;;;;;;;20976551;28;1977;-39
2021/03/03 13:09:59;;;;;;;;;;;;;;;;;;21024473;28;1384;-38
2021/03/03 13:20:02;;;;;;;;;;;;;;;;;;21055770;28;1914;-39
2021/03/03 13:30:05;;;;;;;;;;;;;;;;;;21022818;28;1095;-39
2021/03/03 13:40:21;;;;;;;;;;;;;;;;;;21044325;28;1971;-39
2021/03/03 13:50:37;;;;;;;;;;;;;;;;;;20956724;28;1047;-39
2021/03/03 14:00:53;;;;;;;;;;;;;;;;;;20940291;28;1902;-38
2021/03/03 14:10:54;;;;;;;;;;;;;;;;;;20975998;28;1972;-39
2021/03/03 14:21:11;;;;;;;;;;;;;;;;;;20939303;28;1914;-40
2021/03/03 14:31:27;;;;;;;;;;;;;;;;;;20956529;28;1036;-39
2021/03/03 14:41:43;;;;;;;;;;;;;;;;;;20955502;28;1910;-39
2021/03/03 14:51:44;;;;;;;;;;;;;;;;;;20955386;28;1107;-42
2021/03/03 15:01:46;;;;;;;;;;;;;;;;;;20937146;28;1910;-40
2021/03/03 15:11:48;;;;;;;;;;;;;;;;;;20577977;28;9999801;-41
2021/03/03 15:21:51;;;;;;;;;;;;;;;;;;20896492;28;1910;-41
2021/03/03 15:31:52;;;;;;;;;;;;;;;;;;20956012;28;1087;-43
2021/03/03 15:41:54;;;;;;;;;;;;;;;;;;20919291;28;2201;-39
2021/03/03 15:51:55;;;;;;;;;;;;;;;;;;20970279;28;1230;-40
2021/03/03 16:01:57;;;;;;;;;;;;;;;;;;20994252;28;1910;-40
2021/03/03 16:11:58;;;;;;;;;;;;;;;;;;20932868;28;2505;-40
2021/03/03 16:22:00;;;;;;;;;;;;;;;;;;20957120;28;1915;-42
2021/03/03 16:32:01;;;;;;;;;;;;;;;;;;20969254;28;1061;-42
2021/03/03 16:42:04;;;;;;;;;;;;;;;;;;20963174;28;1934;-41
2021/03/03 16:52:06;;;;;;;;;;;;;;;;;;20953572;28;1276;-42
2021/03/03 17:02:08;;;;;;;;;;;;;;;;;;20976193;28;2249;-42
2021/03/03 17:12:09;;;;;;;;;;;;;;;;;;20951600;28;2209;-43
2021/03/03 17:22:11;;;;;;;;;;;;;;;;;;20879033;28;1938;-42
2021/03/03 17:32:12;;;;;;;;;;;;;;;;;;20931670;28;1155;-41
2021/03/03 17:42:14;;;;;;;;;;;;;;;;;;20927393;28;1917;-42
2021/03/03 17:52:16;;;;;;;;;;;;;;;;;;20959420;28;1070;-42
2021/03/03 18:02:31;;;;;;;;;;;;;;;;;;20960436;28;1902;-42
2021/03/03 18:12:46;;;;;;;;;;;;;;;;;;20940689;28;2403;-44
2021/03/03 18:22:54;;;;;;;;;;;;;;;;;;20958990;28;2086;-40
2021/03/03 18:33:09;;;;;;;;;;;;;;;;;;20883606;28;1060;-43
2021/03/03 18:43:27;;;;;;;;;;;;;;;;;;20881831;28;1902;-41
2021/03/03 18:53:43;;;;;;;;;;;;;;;;;;20957011;28;1244;-43
2021/03/03 19:03:44;;;;;;;;;;;;;;;;;;20955172;28;1906;-41
2021/03/03 19:13:46;;;;;;;;;;;;;;;;;;21014892;28;1505;-41
2021/03/03 19:23:47;;;;;;;;;;;;;;;;;;21039599;28;1906;-42
2021/03/03 19:33:48;;;;;;;;;;;;;;;;;;21038393;28;1016;-40
2021/03/03 19:43:50;;;;;;;;;;;;;;;;;;21007778;28;1913;-41
2021/03/03 19:54:06;;;;;;;;;;;;;;;;;;20921851;28;1098;-40
2021/03/03 20:04:07;;;;;;;;;;;;;;;;;;20978724;28;1906;-42
2021/03/03 20:14:23;;;;;;;;;;;;;;;;;;20898685;28;1112;-39
2021/03/03 20:24:24;;;;;;;;;;;;;;;;;;20893181;28;1977;-36
2021/03/03 20:34:40;;;;;;;;;;;;;;;;;;20897551;28;1031;-42
2021/03/03 20:44:42;;;;;;;;;;;;;;;;;;20908278;28;1913;-37
2021/03/03 20:54:58;;;;;;;;;;;;;;;;;;20942089;28;1192;-40
2021/03/03 21:05:17;;;;;;;;;;;;;;;;;;20945787;28;12142;-39
2021/03/03 21:15:33;;;;;;;;;;;;;;;;;;20761897;28;1157;-35
2021/03/03 21:25:34;;;;;;;;;;;;;;;;;;20810896;28;1906;-40
2021/03/03 21:35:35;;;;;;;;;;;;;;;;;;20791291;28;1137;-39
2021/03/03 21:45:37;;;;;;;;;;;;;;;;;;20809623;28;1914;-41
2021/03/03 21:55:38;;;;;;;;;;;;;;;;;;20806318;28;1077;-41
2021/03/03 22:05:39;;;;;;;;;;;;;;;;;;20807139;28;1895;-42
2021/03/03 22:15:55;;;;;;;;;;;;;;;;;;20803564;28;1052;-42
2021/03/03 22:26:11;;;;;;;;;;;;;;;;;;20803108;28;1910;-43
2021/03/03 22:36:13;;;;;;;;;;;;;;;;;;20769878;28;1432;-43
2021/03/03 22:46:29;;;;;;;;;;;;;;;;;;20754478;28;1979;-42
2021/03/03 22:56:30;;;;;;;;;;;;;;;;;;20803317;28;1043;-39
2021/03/03 23:06:31;;;;;;;;;;;;;;;;;;20802957;28;1981;-35
2021/03/03 23:16:35;;;;;;;;;;;;;;;;;;20803054;28;1134;-35
2021/03/03 23:26:37;;;;;;;;;;;;;;;;;;20799758;28;1914;-36
2021/03/03 23:36:41;;;;;;;;;;;;;;;;;;20801563;28;1207;-36
2021/03/03 23:46:43;;;;;;;;;;;;;;;;;;20801658;28;1906;-37
2021/03/03 23:56:44;;;;;;;;;;;;;;;;;;20782351;28;1087;-36
